Погода Лужеснона 2 недели

Витебская область, Белоруссия

23 июля-05 августа
  • 23июля
    Сегодня
    +13°
    +25°
    Небольшая облачность
    ВремяПогодаТемператураВлажностьДавлениеВетер, м/сВероятность осадков
    00:00Ясно и безоблачно+17°C96 %747 мм2.2 м/с2 %
    03:00Ясно и безоблачно+16°C97 %747 мм2.0 м/с2 %
    06:00Ясно и безоблачно+16°C95 %748 мм2.5 м/с2 %
    09:00Ясно и безоблачно+19°C83 %748 мм2.4 м/с2 %
    12:00Практически безоблачно+23°C58 %748 мм3.1 м/с7 %
    15:00Небольшая облачность+24°C51 %748 мм3.5 м/с6 %
    18:00Практически безоблачно+24°C52 %747 мм2.5 м/с2 %
    21:00Ясно и безоблачно+19°C76 %748 мм2.1 м/с2 %
  • 24июля
    Среда
    +13°
    +25°
    Небольшая облачность и лёгкий дождик
    ВремяПогодаТемператураВлажностьДавлениеВетер, м/сВероятность осадков
    00:00Ясно и безоблачно+16°C86 %748 мм1.9 м/с2 %
    03:00Ясно и безоблачно+15°C85 %747 мм1.8 м/с2 %
    06:00Небольшая облачность+14°C89 %747 мм1.9 м/с2 %
    09:00Ясно и безоблачно+20°C73 %748 мм1.9 м/с2 %
    12:00Небольшая облачность+23°C60 %747 мм3.0 м/с14 %
    15:00Небольшая облачность и лёгкий дождик+24°C54 %747 мм3.1 м/с25 %
    18:00Небольшая облачность+24°C50 %746 мм1.7 м/с23 %
    21:00Небольшая облачность+20°C73 %746 мм1.6 м/с2 %
  • 25июля
    Четверг
    +15°
    +26°
    Небольшая облачность
    ВремяПогодаТемператураВлажностьДавлениеВетер, м/сВероятность осадков
    00:00Практически безоблачно+17°C75 %746 мм1.9 м/с2 %
    03:00Ясно и безоблачно+15°C77 %745 мм2.2 м/с2 %
    06:00Ясно и безоблачно+14°C80 %745 мм1.4 м/с2 %
    09:00Ясно и безоблачно+21°C64 %746 мм1.6 м/с2 %
    12:00Небольшая облачность+25°C40 %745 мм3.0 м/с2 %
    15:00Небольшая облачность+26°C41 %745 мм2.9 м/с2 %
    18:00Пасмурно, сплошная облачность+25°C46 %745 мм1.4 м/с2 %
    21:00Практически безоблачно+21°C64 %745 мм1.8 м/с2 %
  • 26июля
    Пятница
    +15°
    +26°
    Небольшая облачность
    ВремяПогодаТемператураВлажностьДавлениеВетер, м/сВероятность осадков
    00:00Небольшая облачность+17°C71 %745 мм2.2 м/с2 %
    03:00Облачно с прояснениями+16°C76 %745 мм1.9 м/с2 %
    06:00Практически безоблачно+16°C84 %746 мм1.5 м/с2 %
    09:00Ясно и безоблачно+22°C65 %746 мм1.6 м/с2 %
    12:00Практически безоблачно+25°C48 %747 мм2.9 м/с11 %
    15:00Небольшая облачность+26°C48 %747 мм1.9 м/с20 %
    18:00Небольшая облачность+24°C59 %747 мм1.9 м/с29 %
    21:00Ясно и безоблачно+21°C76 %748 мм1.6 м/с11 %
  • 27июля
    Суббота
    +15°
    +26°
    Практически безоблачно
    ВремяПогодаТемператураВлажностьДавлениеВетер, м/сВероятность осадков
    00:00Ясно и безоблачно+17°C90 %749 мм1.9 м/с2 %
    03:00Ясно и безоблачно+16°C93 %749 мм1.9 м/с2 %
    06:00Ясно и безоблачно+16°C93 %749 мм1.2 м/с3 %
    09:00Ясно и безоблачно+22°C72 %750 мм1.6 м/с6 %
    12:00Ясно и безоблачно+25°C55 %751 мм1.9 м/с8 %
    15:00Практически безоблачно+26°C51 %750 мм2.3 м/с33 %
    18:00Облачно с прояснениями+25°C48 %750 мм1.3 м/с35 %
    21:00Ясно и безоблачно+21°C65 %750 мм1.6 м/с11 %
Мы используем cookies
Соглашаюсь